Time;durP1;ratioP1;P1;durP2;ratioP2;P2;SDS_P1;SDS_P2;PMS_P1;PMS_P2;Temp;Humidity;BMP_temperature;BMP_pressure;BME280_temperature;BME280_humidity;BME280_pressure;Samples;Min_cycle;Max_cycle;Signal;HPM_P1;HPM_P2
2021/08/27 00:02:20;;;;;;;1.15;0.55;;;21.30;72.10;;;;;;5114113;27;20051;-56
2021/08/27 00:04:46;;;;;;;0.80;0.43;;;21.30;72.10;;;;;;5134572;27;20038;-56
2021/08/27 00:07:11;;;;;;;0.55;0.40;;;21.30;72.10;;;;;;5133146;27;20054;-54
2021/08/27 00:09:37;;;;;;;0.63;0.50;;;21.30;72.10;;;;;;5133047;27;20502;-55
2021/08/27 00:12:03;;;;;;;1.38;0.70;;;21.30;72.10;;;;;;5132832;27;20394;-55
2021/08/27 00:14:29;;;;;;;0.63;0.47;;;21.30;72.10;;;;;;5133248;27;20070;-56
2021/08/27 00:16:55;;;;;;;0.85;0.60;;;21.30;72.10;;;;;;5133607;27;20454;-54
2021/08/27 00:19:21;;;;;;;1.73;0.73;;;21.30;72.20;;;;;;5147158;27;20057;-55
2021/08/27 00:21:47;;;;;;;1.17;0.47;;;21.30;72.20;;;;;;5153818;27;20347;-56
2021/08/27 00:24:12;;;;;;;0.70;0.50;;;21.30;72.20;;;;;;5153452;27;20038;-57
2021/08/27 00:26:38;;;;;;;1.05;0.80;;;21.30;72.20;;;;;;5151960;27;20027;-56
2021/08/27 00:29:04;;;;;;;1.02;0.50;;;21.30;72.20;;;;;;5153675;27;20041;-55
2021/08/27 00:31:30;;;;;;;1.77;0.57;;;21.30;72.20;;;;;;5153449;27;20420;-52
2021/08/27 00:33:57;;;;;;;0.90;0.50;;;21.30;72.20;;;;;;5152788;27;20069;-56
2021/08/27 00:36:22;;;;;;;0.90;0.60;;;21.30;72.20;;;;;;5152253;27;20550;-53
2021/08/27 00:38:48;;;;;;;1.05;0.60;;;21.20;72.10;;;;;;5152574;27;20066;-56
2021/08/27 00:41:14;;;;;;;0.90;0.50;;;21.30;72.20;;;;;;5153691;27;20050;-52
2021/08/27 00:43:40;;;;;;;0.90;0.50;;;21.30;72.20;;;;;;5153614;27;20099;-56
2021/08/27 00:46:05;;;;;;;1.65;0.75;;;21.30;72.20;;;;;;5153411;27;20046;-54
2021/08/27 00:48:31;;;;;;;0.73;0.43;;;21.30;72.20;;;;;;5151330;27;20038;-56
2021/08/27 00:50:57;;;;;;;1.77;0.70;;;21.30;72.20;;;;;;5153203;27;20452;-56
2021/08/27 00:53:23;;;;;;;0.40;0.40;;;21.30;72.20;;;;;;5153609;27;20043;-55
2021/08/27 00:55:49;;;;;;;1.38;0.55;;;21.30;72.20;;;;;;5153267;27;20480;-55
2021/08/27 00:58:15;;;;;;;1.88;0.50;;;21.30;72.20;;;;;;5132916;27;20049;-54
2021/08/27 01:00:44;;;;;;;1.15;0.65;;;21.20;72.20;;;;;;5151859;27;20063;-56
2021/08/27 01:03:12;;;;;;;1.17;0.70;;;21.20;72.20;;;;;;5153147;27;20099;-56
2021/08/27 01:05:45;;;;;;;1.33;0.80;;;21.20;72.20;;;;;;5153038;27;20102;-55
2021/08/27 01:08:29;;;;;;;0.75;0.30;;;21.20;72.20;;;;;;5157324;27;20043;-55
2021/08/27 01:11:08;;;;;;;1.63;0.75;;;21.20;72.20;;;;;;5155796;27;20041;-55
2021/08/27 01:13:52;;;;;;;0.77;0.55;;;21.20;72.20;;;;;;5157748;27;20050;-56
2021/08/27 01:16:29;;;;;;;1.03;0.70;;;21.20;72.20;;;;;;5157568;27;20094;-55
2021/08/27 01:19:13;;;;;;;1.33;0.47;;;21.20;72.20;;;;;;5157528;27;20662;-55
2021/08/27 01:22:07;;;;;;;0.38;0.38;;;21.20;72.20;;;;;;5155320;27;20038;-55
2021/08/27 01:24:35;;;;;;;0.60;0.60;;;21.20;72.20;;;;;;5157192;27;20038;-55
2021/08/27 01:27:04;;;;;;;1.08;0.63;;;21.20;72.20;;;;;;5156928;27;20042;-55
2021/08/27 01:29:47;;;;;;;2.35;0.70;;;21.20;72.20;;;;;;5156907;27;20083;-55
2021/08/27 01:32:22;;;;;;;0.70;0.43;;;21.20;72.20;;;;;;5155523;27;20054;-55
2021/08/27 01:34:50;;;;;;;1.05;0.60;;;21.20;72.20;;;;;;5157167;27;20443;-56
2021/08/27 01:37:21;;;;;;;1.23;0.50;;;21.20;72.20;;;;;;5156387;27;20043;-56
2021/08/27 01:39:50;;;;;;;1.38;0.60;;;21.20;72.20;;;;;;5156681;27;20042;-56
2021/08/27 01:42:20;;;;;;;2.00;0.60;;;21.20;72.20;;;;;;5155391;27;20039;-56
2021/08/27 01:44:48;;;;;;;1.00;0.70;;;21.20;72.20;;;;;;5156779;27;20110;-53
2021/08/27 01:47:17;;;;;;;0.57;0.43;;;21.20;72.20;;;;;;5157003;27;20379;-55
2021/08/27 01:49:46;;;;;;;0.90;0.50;;;21.20;72.20;;;;;;5156998;27;20047;-56
2021/08/27 01:52:14;;;;;;;1.60;0.57;;;21.20;72.20;;;;;;5156329;27;20043;-54
2021/08/27 01:54:40;;;;;;;3.15;0.70;;;21.20;72.20;;;;;;5154948;27;20051;-56
2021/08/27 01:57:07;;;;;;;0.52;0.43;;;21.20;72.20;;;;;;5156219;27;20340;-55
2021/08/27 01:59:39;;;;;;;0.90;0.60;;;21.20;72.30;;;;;;5156528;27;20035;-56
2021/08/27 02:02:07;;;;;;;1.02;0.68;;;21.20;72.20;;;;;;5137925;27;20042;-55
2021/08/27 02:04:37;;;;;;;1.40;0.65;;;21.20;72.20;;;;;;5154817;27;20042;-56
2021/08/27 02:07:05;;;;;;;1.65;0.77;;;21.20;72.20;;;;;;5139943;27;20046;-56
2021/08/27 02:09:32;;;;;;;1.30;0.85;;;21.20;72.30;;;;;;5135502;27;20520;-56
2021/08/27 02:11:58;;;;;;;1.00;0.60;;;21.20;72.30;;;;;;5135234;27;20058;-57
2021/08/27 02:14:25;;;;;;;1.45;0.50;;;21.20;72.30;;;;;;5136635;27;20079;-56
2021/08/27 02:16:50;;;;;;;1.02;0.65;;;21.20;72.30;;;;;;5135391;27;20398;-55
2021/08/27 02:19:16;;;;;;;1.00;0.60;;;21.10;72.20;;;;;;5115280;27;20051;-56
2021/08/27 02:21:46;;;;;;;1.10;0.60;;;21.20;72.30;;;;;;5134408;27;20112;-54
2021/08/27 02:24:15;;;;;;;0.93;0.60;;;21.20;72.30;;;;;;5134989;27;20089;-53
2021/08/27 02:26:43;;;;;;;2.13;0.63;;;21.20;72.30;;;;;;5136220;27;20391;-56
2021/08/27 02:29:10;;;;;;;1.60;0.70;;;21.20;72.20;;;;;;5135238;27;20043;-56
2021/08/27 02:31:37;;;;;;;0.57;0.50;;;21.20;72.20;;;;;;5135278;27;20043;-56
2021/08/27 02:34:04;;;;;;;0.70;0.57;;;21.20;72.20;;;;;;5134943;27;20487;-56
2021/08/27 02:36:30;;;;;;;1.40;0.80;;;21.10;72.20;;;;;;5135728;27;20044;-55
2021/08/27 02:38:58;;;;;;;0.70;0.50;;;21.10;72.20;;;;;;5134270;27;20092;-56
2021/08/27 02:41:24;;;;;;;1.00;0.57;;;21.20;72.20;;;;;;5134810;27;20491;-56
2021/08/27 02:43:50;;;;;;;1.70;0.80;;;21.10;72.20;;;;;;5135030;27;20043;-56
2021/08/27 02:46:15;;;;;;;0.82;0.65;;;21.10;72.20;;;;;;5136148;27;20035;-55
2021/08/27 02:48:41;;;;;;;0.77;0.50;;;21.10;72.20;;;;;;5135111;27;20126;-53
2021/08/27 02:51:16;;;;;;;1.17;0.55;;;21.10;72.20;;;;;;5134634;27;20039;-55
2021/08/27 02:53:47;;;;;;;0.75;0.65;;;21.10;72.20;;;;;;5134682;27;20039;-56
2021/08/27 02:56:19;;;;;;;0.80;0.50;;;21.20;72.20;;;;;;5134016;27;20508;-54
2021/08/27 02:58:49;;;;;;;1.45;0.63;;;21.10;72.20;;;;;;5135621;27;20509;-56
2021/08/27 03:01:37;;;;;;;0.90;0.52;;;21.10;72.20;;;;;;5134729;27;20047;-55
2021/08/27 03:04:40;;;;;;;0.77;0.63;;;21.10;72.10;;;;;;5134592;27;20074;-54
2021/08/27 03:07:10;;;;;;;1.40;0.73;;;21.10;72.10;;;;;;5134307;27;20379;-54
2021/08/27 03:09:59;;;;;;;0.80;0.40;;;21.20;72.20;;;;;;5139755;27;20034;-55
2021/08/27 03:12:46;;;;;;;0.77;0.60;;;21.10;72.20;;;;;;5153975;27;20043;-56
2021/08/27 03:15:32;;;;;;;1.08;0.63;;;21.10;72.20;;;;;;5155164;27;20047;-55
2021/08/27 03:18:05;;;;;;;1.67;0.50;;;21.10;72.10;;;;;;5153386;27;20142;-54
2021/08/27 03:20:46;;;;;;;1.38;0.82;;;21.10;72.20;;;;;;5154402;27;20042;-51
2021/08/27 03:23:15;;;;;;;1.30;0.77;;;21.10;72.10;;;;;;5136754;27;20046;-53
2021/08/27 03:25:44;;;;;;;0.60;0.50;;;21.10;72.20;;;;;;5155030;27;20050;-54
2021/08/27 03:28:19;;;;;;;1.38;0.47;;;21.10;72.20;;;;;;5155088;27;20042;-55
2021/08/27 03:30:50;;;;;;;1.30;0.82;;;21.10;72.20;;;;;;5153237;27;20043;-54
2021/08/27 03:33:17;;;;;;;1.45;0.90;;;21.10;72.20;;;;;;5154789;27;20035;-56
2021/08/27 03:35:43;;;;;;;1.38;0.60;;;21.10;72.20;;;;;;5154916;27;20402;-55
2021/08/27 03:38:11;;;;;;;1.85;0.60;;;21.10;72.20;;;;;;5154685;27;20046;-55
2021/08/27 03:40:37;;;;;;;0.73;0.50;;;21.10;72.20;;;;;;5152425;27;20490;-56
2021/08/27 03:43:03;;;;;;;1.80;0.63;;;21.10;72.20;;;;;;5154168;27;20042;-56
2021/08/27 03:45:30;;;;;;;1.88;0.80;;;21.10;72.20;;;;;;5154448;27;20039;-47
2021/08/27 03:47:57;;;;;;;0.80;0.57;;;21.10;72.30;;;;;;5154410;27;20053;-56
2021/08/27 03:50:23;;;;;;;1.25;0.50;;;21.10;72.20;;;;;;5153005;27;20083;-54
2021/08/27 03:52:51;;;;;;;1.20;0.90;;;21.10;72.30;;;;;;5154862;27;20112;-55
2021/08/27 03:55:19;;;;;;;1.05;0.57;;;21.10;72.30;;;;;;5154845;27;20147;-56
2021/08/27 03:57:47;;;;;;;0.73;0.50;;;21.10;72.30;;;;;;5154267;27;20046;-56
2021/08/27 04:00:14;;;;;;;1.15;0.60;;;21.10;72.30;;;;;;5154641;27;20057;-55
2021/08/27 04:02:40;;;;;;;1.48;0.57;;;21.10;72.30;;;;;;5152637;27;20061;-56
2021/08/27 04:05:17;;;;;;;1.90;0.80;;;21.10;72.30;;;;;;5154395;27;20480;-56
2021/08/27 04:07:44;;;;;;;0.73;0.40;;;21.10;72.30;;;;;;5154026;27;20116;-52
2021/08/27 04:10:11;;;;;;;1.00;0.60;;;21.10;72.30;;;;;;5154028;27;20039;-56
2021/08/27 04:12:39;;;;;;;0.65;0.57;;;21.10;72.40;;;;;;5151857;27;20058;-56
2021/08/27 04:15:06;;;;;;;1.13;0.60;;;21.10;72.30;;;;;;5152988;27;20039;-52
2021/08/27 04:17:32;;;;;;;0.98;0.60;;;21.10;72.40;;;;;;5153599;27;20254;-54
2021/08/27 04:19:57;;;;;;;2.58;0.90;;;21.10;72.40;;;;;;5153792;27;20114;-54
2021/08/27 04:22:24;;;;;;;1.52;0.60;;;21.10;72.40;;;;;;5151851;27;20038;-55
2021/08/27 04:24:50;;;;;;;1.25;0.60;;;21.10;72.40;;;;;;5153494;27;20043;-55
2021/08/27 04:27:15;;;;;;;1.42;0.75;;;21.10;72.40;;;;;;5153601;27;20034;-56
2021/08/27 04:29:42;;;;;;;1.15;0.80;;;21.10;72.40;;;;;;5152832;27;20046;-55
2021/08/27 04:32:08;;;;;;;1.42;0.60;;;21.00;72.30;;;;;;5152526;27;20055;-54
2021/08/27 04:34:34;;;;;;;1.77;0.75;;;21.00;72.30;;;;;;5135105;27;20035;-53
2021/08/27 04:37:00;;;;;;;1.02;0.50;;;21.10;72.40;;;;;;5131842;27;20035;-55
2021/08/27 04:39:26;;;;;;;2.92;0.80;;;21.00;72.30;;;;;;5132271;27;20463;-56
2021/08/27 04:41:51;;;;;;;1.20;0.68;;;21.10;72.40;;;;;;5132082;27;20053;-52
2021/08/27 04:44:17;;;;;;;1.15;0.57;;;21.00;72.40;;;;;;5133466;27;20140;-55
2021/08/27 04:46:43;;;;;;;1.40;0.60;;;21.00;72.40;;;;;;5132432;28;20043;-55
2021/08/27 04:49:08;;;;;;;2.47;1.02;;;21.00;72.40;;;;;;5114236;28;20483;-55
2021/08/27 04:51:34;;;;;;;0.57;0.47;;;21.00;72.30;;;;;;5132784;28;20039;-55
2021/08/27 04:54:00;;;;;;;1.77;0.60;;;21.10;72.40;;;;;;5133858;27;20053;-55
2021/08/27 04:56:25;;;;;;;0.90;0.65;;;21.00;72.30;;;;;;5132466;28;20056;-55
2021/08/27 04:58:51;;;;;;;1.42;0.73;;;21.00;72.30;;;;;;5132439;28;20047;-55
2021/08/27 05:01:17;;;;;;;1.52;0.75;;;21.00;72.30;;;;;;5132222;28;20035;-56
2021/08/27 05:03:43;;;;;;;0.70;0.55;;;21.00;72.30;;;;;;5132588;28;20043;-56
2021/08/27 05:06:08;;;;;;;1.20;0.60;;;21.00;72.30;;;;;;5143147;27;20482;-56
2021/08/27 05:08:34;;;;;;;0.80;0.50;;;21.00;72.30;;;;;;5142753;27;20360;-56
2021/08/27 05:11:00;;;;;;;1.15;0.57;;;21.00;72.30;;;;;;5153367;27;20430;-56
2021/08/27 05:13:25;;;;;;;1.17;0.70;;;21.00;72.30;;;;;;5153397;27;20042;-56
2021/08/27 05:15:51;;;;;;;1.70;0.80;;;21.10;72.40;;;;;;5150817;27;20046;-54
2021/08/27 05:18:17;;;;;;;0.70;0.55;;;21.00;72.40;;;;;;5140161;27;20091;-56
2021/08/27 05:20:42;;;;;;;1.67;0.70;;;21.00;72.30;;;;;;5132432;28;20050;-54
2021/08/27 05:23:08;;;;;;;2.72;0.95;;;21.00;72.30;;;;;;5132659;28;20071;-56
2021/08/27 05:25:34;;;;;;;0.98;0.73;;;21.00;72.30;;;;;;5132659;27;20083;-53
2021/08/27 05:27:59;;;;;;;0.93;0.57;;;21.00;72.30;;;;;;5151724;27;20538;-55
2021/08/27 05:30:25;;;;;;;1.50;0.70;;;21.00;72.30;;;;;;5152976;27;20078;-54
2021/08/27 05:32:52;;;;;;;1.02;0.70;;;21.00;72.40;;;;;;5152858;27;20077;-55
2021/08/27 05:35:18;;;;;;;0.85;0.65;;;21.00;72.40;;;;;;5152731;27;20047;-56
2021/08/27 05:37:43;;;;;;;1.02;0.60;;;21.00;72.30;;;;;;5151370;27;20053;-56
2021/08/27 05:40:10;;;;;;;0.98;0.50;;;21.00;72.40;;;;;;5153429;27;20042;-55
2021/08/27 05:42:37;;;;;;;1.67;0.70;;;21.00;72.30;;;;;;5153471;27;20042;-55
2021/08/27 05:45:04;;;;;;;0.60;0.50;;;21.00;72.40;;;;;;5153192;27;20074;-48
2021/08/27 05:47:33;;;;;;;2.13;0.88;;;21.00;72.40;;;;;;5150739;27;20038;-54
2021/08/27 05:49:59;;;;;;;1.60;0.50;;;21.00;73.00;;;;;;5133977;27;20035;-54
2021/08/27 05:52:26;;;;;;;1.08;0.70;;;21.00;72.40;;;;;;5154511;27;20419;-53
2021/08/27 05:54:52;;;;;;;1.77;0.70;;;21.00;72.40;;;;;;5155143;27;20048;-53
2021/08/27 05:57:18;;;;;;;1.60;0.57;;;21.00;72.40;;;;;;5138009;27;20051;-52
2021/08/27 05:59:44;;;;;;;1.17;0.80;;;21.00;72.40;;;;;;5156666;27;20087;-53
2021/08/27 06:02:09;;;;;;;1.00;0.60;;;21.00;72.40;;;;;;5156655;27;20384;-50
2021/08/27 06:04:35;;;;;;;1.25;0.70;;;21.00;72.40;;;;;;5156196;27;20114;-52
2021/08/27 06:07:01;;;;;;;1.38;0.80;;;21.00;72.40;;;;;;5154748;27;20138;-52
2021/08/27 06:09:27;;;;;;;0.73;0.50;;;21.00;72.40;;;;;;5156717;27;20130;-53
2021/08/27 06:11:52;;;;;;;1.73;0.55;;;21.00;72.40;;;;;;5156284;27;20416;-51
2021/08/27 06:14:18;;;;;;;1.23;0.70;;;21.00;72.40;;;;;;5156978;27;20049;-53
2021/08/27 06:16:44;;;;;;;0.88;0.52;;;21.00;72.40;;;;;;5154374;27;20121;-53
2021/08/27 06:19:10;;;;;;;1.83;0.52;;;21.00;72.40;;;;;;5126965;27;20121;-54
2021/08/27 06:21:37;;;;;;;1.35;0.90;;;21.00;72.40;;;;;;5156387;27;20042;-48
2021/08/27 06:24:04;;;;;;;1.02;0.60;;;21.00;72.40;;;;;;5155996;27;20368;-53
2021/08/27 06:26:30;;;;;;;1.23;0.75;;;21.00;72.40;;;;;;5154274;27;20088;-52
2021/08/27 06:28:58;;;;;;;1.10;0.40;;;21.00;72.40;;;;;;5155928;27;20047;-52
2021/08/27 06:31:24;;;;;;;1.80;0.60;;;21.00;72.40;;;;;;5155568;27;20038;-51
2021/08/27 06:33:50;;;;;;;1.58;0.68;;;21.00;72.40;;;;;;5155722;27;20048;-53
2021/08/27 06:36:16;;;;;;;0.82;0.60;;;21.00;72.50;;;;;;5155441;27;20591;-53
2021/08/27 06:38:42;;;;;;;0.85;0.43;;;21.00;72.40;;;;;;5153734;27;20142;-52
2021/08/27 06:41:08;;;;;;;0.95;0.60;;;21.00;72.40;;;;;;5155608;27;20129;-53
2021/08/27 06:43:37;;;;;;;1.15;0.45;;;21.00;72.40;;;;;;5155550;27;20490;-53
2021/08/27 06:46:12;;;;;;;0.65;0.50;;;21.00;72.40;;;;;;5155478;27;20502;-53
2021/08/27 06:48:38;;;;;;;1.33;0.65;;;21.00;72.40;;;;;;5153572;27;20550;-49
2021/08/27 06:51:04;;;;;;;0.65;0.43;;;21.00;72.40;;;;;;5155174;27;20121;-53
2021/08/27 06:53:30;;;;;;;0.93;0.45;;;21.00;72.40;;;;;;5155364;27;20466;-53
2021/08/27 06:55:55;;;;;;;0.75;0.50;;;21.00;72.40;;;;;;5155454;27;20080;-52
2021/08/27 06:58:22;;;;;;;0.90;0.65;;;21.00;72.50;;;;;;5153389;27;20574;-52
2021/08/27 07:00:47;;;;;;;0.80;0.50;;;21.00;72.40;;;;;;5143613;27;20042;-49
2021/08/27 07:03:13;;;;;;;0.80;0.60;;;21.00;72.50;;;;;;5133994;27;20388;-46
2021/08/27 07:05:39;;;;;;;1.13;0.68;;;21.00;72.50;;;;;;5133620;27;20084;-50
2021/08/27 07:08:08;;;;;;;1.08;0.60;;;21.00;72.50;;;;;;5132460;27;20058;-50
2021/08/27 07:10:35;;;;;;;0.90;0.70;;;21.00;72.50;;;;;;5130859;27;20039;-50
2021/08/27 07:13:02;;;;;;;0.95;0.85;;;21.00;72.50;;;;;;5140331;27;20514;-49
2021/08/27 07:15:28;;;;;;;1.50;0.50;;;21.00;72.40;;;;;;5115083;27;20500;-50
2021/08/27 07:17:54;;;;;;;0.47;0.47;;;21.00;72.40;;;;;;5153459;27;20042;-52
2021/08/27 07:20:24;;;;;;;0.52;0.43;;;21.00;73.20;;;;;;5147779;27;20046;-48
2021/08/27 07:22:54;;;;;;;1.10;0.55;;;21.00;72.40;;;;;;5146760;27;20137;-53
2021/08/27 07:25:20;;;;;;;1.10;0.80;;;21.00;72.50;;;;;;5154456;27;20049;-52
2021/08/27 07:27:47;;;;;;;1.65;0.75;;;21.00;72.40;;;;;;5154075;27;20473;-52
2021/08/27 07:30:13;;;;;;;0.93;0.60;;;21.00;72.50;;;;;;5154608;27;20078;-49
2021/08/27 07:32:39;;;;;;;1.10;0.63;;;21.00;72.50;;;;;;5154279;27;20039;-49
2021/08/27 07:35:07;;;;;;;0.73;0.60;;;21.00;72.40;;;;;;5154370;27;20495;-50
2021/08/27 07:37:33;;;;;;;0.68;0.40;;;21.00;72.40;;;;;;5153686;27;20039;-54
2021/08/27 07:39:59;;;;;;;1.23;0.43;;;21.00;72.40;;;;;;5154213;27;20042;-47
2021/08/27 07:42:25;;;;;;;1.25;0.55;;;21.00;72.40;;;;;;5153849;27;20075;-49
2021/08/27 07:44:50;;;;;;;2.08;0.63;;;21.00;72.40;;;;;;5154128;27;20042;-54
2021/08/27 07:47:16;;;;;;;0.70;0.60;;;21.00;72.40;;;;;;5154108;27;20050;-54
2021/08/27 07:49:42;;;;;;;1.27;0.52;;;21.00;72.40;;;;;;5153548;27;20050;-54
2021/08/27 07:52:08;;;;;;;1.02;0.70;;;21.10;72.40;;;;;;5134355;27;20406;-50
2021/08/27 07:54:33;;;;;;;0.75;0.55;;;21.00;72.30;;;;;;5152220;27;20039;-52
2021/08/27 07:56:59;;;;;;;0.47;0.43;;;21.00;72.30;;;;;;5150299;27;20047;-54
2021/08/27 07:59:25;;;;;;;0.82;0.50;;;21.00;72.30;;;;;;5152829;27;20046;-49
2021/08/27 08:01:52;;;;;;;0.77;0.40;;;21.00;72.30;;;;;;5153176;27;20042;-54
2021/08/27 08:04:18;;;;;;;0.93;0.45;;;21.00;72.20;;;;;;5152869;27;20091;-54
2021/08/27 08:06:44;;;;;;;1.45;0.40;;;21.00;72.30;;;;;;5152842;27;20450;-53
2021/08/27 08:09:10;;;;;;;0.60;0.40;;;21.00;72.20;;;;;;5151974;27;20050;-54
2021/08/27 08:11:36;;;;;;;1.02;0.60;;;21.00;72.20;;;;;;5152904;27;20162;-50
2021/08/27 08:14:02;;;;;;;1.70;0.82;;;21.00;72.20;;;;;;5134324;27;20138;-54
2021/08/27 08:16:28;;;;;;;1.40;0.65;;;21.00;72.20;;;;;;5151831;27;20035;-55
2021/08/27 08:18:54;;;;;;;0.60;0.52;;;21.00;72.20;;;;;;5131169;27;20066;-54
2021/08/27 08:21:23;;;;;;;0.93;0.45;;;21.10;72.20;;;;;;5152812;27;20035;-49
2021/08/27 08:23:50;;;;;;;0.25;0.25;;;21.00;72.10;;;;;;5153120;27;20121;-55
2021/08/27 08:26:16;;;;;;;2.25;0.68;;;21.00;72.20;;;;;;5150193;27;20096;-54
2021/08/27 08:28:41;;;;;;;1.65;0.77;;;21.00;72.10;;;;;;5152526;27;20075;-52
2021/08/27 08:31:07;;;;;;;1.00;0.30;;;21.10;72.20;;;;;;5152750;27;20490;-54
2021/08/27 08:33:32;;;;;;;2.00;0.73;;;21.10;72.20;;;;;;5152065;27;20042;-54
2021/08/27 08:35:58;;;;;;;0.57;0.50;;;21.10;72.20;;;;;;5152706;27;20043;-53
2021/08/27 08:38:24;;;;;;;0.88;0.68;;;21.10;72.20;;;;;;5153451;27;20038;-56
2021/08/27 08:40:50;;;;;;;1.05;0.70;;;21.10;72.20;;;;;;5152686;27;20038;-54
2021/08/27 08:43:17;;;;;;;1.00;0.55;;;21.10;72.20;;;;;;5110871;28;20075;-53
2021/08/27 08:45:48;;;;;;;0.60;0.60;;;21.10;72.20;;;;;;5140018;27;20154;-53
2021/08/27 08:48:19;;;;;;;0.63;0.50;;;21.10;72.80;;;;;;5147204;27;20166;-56
2021/08/27 08:50:45;;;;;;;0.50;0.50;;;21.10;72.10;;;;;;5152273;27;20440;-51
2021/08/27 08:53:12;;;;;;;0.77;0.43;;;21.10;72.10;;;;;;5151957;27;20042;-54
2021/08/27 08:55:39;;;;;;;0.90;0.50;;;21.10;72.20;;;;;;5147265;27;20398;-55
2021/08/27 08:58:05;;;;;;;1.15;0.63;;;21.10;72.10;;;;;;5133627;27;20043;-56
2021/08/27 09:00:31;;;;;;;1.05;0.63;;;21.10;72.10;;;;;;5151467;27;20096;-55
2021/08/27 09:03:01;;;;;;;1.00;0.52;;;21.10;72.10;;;;;;5151740;27;20031;-55
2021/08/27 09:05:27;;;;;;;1.20;0.80;;;21.10;72.10;;;;;;5152350;27;20038;-54
2021/08/27 09:07:53;;;;;;;0.93;0.50;;;21.20;72.10;;;;;;5152083;27;20042;-55
2021/08/27 09:10:21;;;;;;;0.90;0.43;;;21.10;72.00;;;;;;5152506;27;20034;-55
2021/08/27 09:12:48;;;;;;;0.68;0.50;;;21.10;72.10;;;;;;5151500;27;20051;-54
2021/08/27 09:15:15;;;;;;;3.00;0.80;;;21.10;72.00;;;;;;5151808;27;20600;-56
2021/08/27 09:17:49;;;;;;;2.05;0.65;;;21.20;72.10;;;;;;5152022;27;20042;-55
2021/08/27 09:20:20;;;;;;;1.08;0.52;;;21.10;72.00;;;;;;5152423;27;20482;-52
2021/08/27 09:22:58;;;;;;;1.45;0.65;;;21.10;72.00;;;;;;5151792;27;20045;-56
2021/08/27 09:25:29;;;;;;;1.65;0.50;;;21.20;72.00;;;;;;5150184;27;20027;-55
2021/08/27 09:28:11;;;;;;;1.77;0.80;;;21.20;72.10;;;;;;5135819;27;20490;-56
2021/08/27 09:30:54;;;;;;;1.10;0.50;;;21.20;72.00;;;;;;5155301;27;20452;-55
2021/08/27 09:33:23;;;;;;;0.38;0.38;;;21.20;72.00;;;;;;5153298;27;20035;-52
2021/08/27 09:36:00;;;;;;;1.88;0.77;;;21.20;72.00;;;;;;5156054;27;20041;-54
2021/08/27 09:38:34;;;;;;;0.77;0.60;;;21.20;72.00;;;;;;5153565;27;20439;-54
2021/08/27 09:41:00;;;;;;;1.90;0.57;;;21.20;72.00;;;;;;5153788;27;20034;-55
2021/08/27 09:43:26;;;;;;;0.65;0.50;;;21.20;72.00;;;;;;5155634;27;20050;-51
2021/08/27 09:45:52;;;;;;;1.15;0.60;;;21.20;71.90;;;;;;5155854;27;20031;-51
2021/08/27 09:48:17;;;;;;;1.05;0.77;;;21.20;71.90;;;;;;5156301;27;20095;-54
2021/08/27 09:50:46;;;;;;;1.00;0.60;;;21.20;71.90;;;;;;5137527;27;20505;-52
2021/08/27 09:53:14;;;;;;;1.08;0.80;;;21.30;72.00;;;;;;5155460;27;20050;-56
2021/08/27 09:55:53;;;;;;;0.80;0.70;;;21.30;72.00;;;;;;5155821;27;20070;-52
2021/08/27 09:58:18;;;;;;;1.25;0.70;;;21.30;72.00;;;;;;5155632;27;20039;-50
2021/08/27 10:00:47;;;;;;;2.42;0.60;;;21.30;71.90;;;;;;5155376;27;20375;-56
2021/08/27 10:03:17;;;;;;;0.70;0.45;;;21.30;71.90;;;;;;5155802;27;20054;-50
2021/08/27 10:05:43;;;;;;;1.83;0.52;;;21.30;71.90;;;;;;5154590;27;20129;-55
2021/08/27 10:08:19;;;;;;;1.02;0.63;;;21.30;71.90;;;;;;5155811;27;20039;-52
2021/08/27 10:10:46;;;;;;;1.23;0.75;;;21.30;71.80;;;;;;5155804;27;20061;-53
2021/08/27 10:13:12;;;;;;;1.08;0.60;;;21.30;71.80;;;;;;5155360;27;20054;-56
2021/08/27 10:15:39;;;;;;;1.23;0.60;;;21.40;71.80;;;;;;5153877;27;20053;-50
2021/08/27 10:18:09;;;;;;;1.60;0.80;;;21.40;71.80;;;;;;5155762;27;20043;-54
2021/08/27 10:20:40;;;;;;;1.08;0.70;;;21.40;71.80;;;;;;5155545;27;20149;-53
2021/08/27 10:23:08;;;;;;;0.90;0.63;;;21.40;71.80;;;;;;5155179;27;20050;-54
2021/08/27 10:25:35;;;;;;;0.98;0.50;;;21.40;71.80;;;;;;5154392;27;20043;-49
2021/08/27 10:28:01;;;;;;;0.95;0.70;;;21.40;71.70;;;;;;5155707;27;20042;-50
2021/08/27 10:30:49;;;;;;;1.42;0.50;;;21.40;71.70;;;;;;5135898;27;20153;-55
2021/08/27 10:33:15;;;;;;;0.70;0.45;;;21.40;71.70;;;;;;5154829;27;20111;-52
2021/08/27 10:35:45;;;;;;;1.08;0.60;;;21.30;71.60;;;;;;5154714;27;20043;-54
2021/08/27 10:38:57;;;;;;;0.85;0.60;;;21.40;71.70;;;;;;5154552;27;20050;-52
2021/08/27 10:41:28;;;;;;;0.90;0.60;;;21.50;71.70;;;;;;5150998;27;20054;-51
2021/08/27 10:43:53;;;;;;;1.38;0.70;;;21.40;71.60;;;;;;5155373;27;20083;-53
2021/08/27 10:46:19;;;;;;;0.50;0.50;;;21.50;71.70;;;;;;5154834;27;20050;-55
2021/08/27 10:48:53;;;;;;;1.30;0.50;;;21.50;71.70;;;;;;5154430;27;20595;-52
2021/08/27 10:51:34;;;;;;;0.80;0.57;;;21.50;71.70;;;;;;5151866;27;20062;-53
2021/08/27 10:54:00;;;;;;;2.08;0.57;;;21.50;71.70;;;;;;5133494;27;20094;-48
2021/08/27 10:56:50;;;;;;;0.82;0.40;;;21.50;71.70;;;;;;5153684;27;20030;-52
2021/08/27 10:59:17;;;;;;;1.10;0.70;;;21.50;71.60;;;;;;5153761;27;20038;-52
2021/08/27 11:02:02;;;;;;;0.85;0.45;;;21.50;71.60;;;;;;5153156;27;20474;-55
2021/08/27 11:04:29;;;;;;;1.10;0.70;;;21.50;71.60;;;;;;5151833;27;20031;-55
2021/08/27 11:06:59;;;;;;;1.15;0.80;;;21.50;71.60;;;;;;5153429;27;20054;-51
2021/08/27 11:09:26;;;;;;;2.10;0.75;;;21.50;71.60;;;;;;5151967;27;20034;-54
2021/08/27 11:12:16;;;;;;;1.42;0.90;;;21.50;71.60;;;;;;5153540;27;20498;-55
2021/08/27 11:14:47;;;;;;;0.90;0.63;;;21.50;71.50;;;;;;5049585;28;20499;-56
2021/08/27 11:17:13;;;;;;;1.92;0.70;;;21.50;71.50;;;;;;5047915;28;20053;-51
2021/08/27 11:19:58;;;;;;;0.90;0.70;;;21.50;71.50;;;;;;5048391;28;20049;-54
2021/08/27 11:22:31;;;;;;;0.93;0.60;;;21.50;71.50;;;;;;5047772;28;20102;-53
2021/08/27 11:25:10;;;;;;;0.75;0.52;;;21.50;71.50;;;;;;5050187;28;20087;-57
2021/08/27 11:27:37;;;;;;;1.05;0.55;;;21.50;71.50;;;;;;5050369;28;20060;-52
2021/08/27 11:30:28;;;;;;;1.25;0.73;;;21.50;71.50;;;;;;5050282;28;20045;-54
2021/08/27 11:32:55;;;;;;;1.27;0.80;;;21.60;71.50;;;;;;5042273;28;20473;-51
2021/08/27 11:35:22;;;;;;;1.58;0.73;;;21.60;71.50;;;;;;5046532;28;20493;-56
2021/08/27 11:37:55;;;;;;;1.48;0.60;;;21.60;71.50;;;;;;5033019;28;20047;-55
2021/08/27 11:40:21;;;;;;;0.55;0.40;;;21.60;71.50;;;;;;5050466;28;20132;-55
2021/08/27 11:42:47;;;;;;;1.27;0.73;;;21.60;71.50;;;;;;5050366;28;20045;-56
2021/08/27 11:45:18;;;;;;;1.60;0.57;;;21.60;71.50;;;;;;5048739;28;20045;-56
2021/08/27 11:47:50;;;;;;;0.60;0.50;;;21.60;71.50;;;;;;5033457;28;20078;-56
2021/08/27 11:50:35;;;;;;;0.95;0.47;;;21.60;71.50;;;;;;5049797;28;20499;-55
2021/08/27 11:53:02;;;;;;;1.50;0.70;;;21.60;71.50;;;;;;5133720;27;20079;-54
2021/08/27 11:55:29;;;;;;;1.48;0.60;;;21.60;71.40;;;;;;5134584;27;20089;-56
2021/08/27 11:57:58;;;;;;;1.13;0.60;;;21.60;71.40;;;;;;5133772;27;20052;-56
2021/08/27 12:00:41;;;;;;;1.42;0.65;;;21.60;71.40;;;;;;5133610;27;20541;-56
2021/08/27 12:03:11;;;;;;;0.95;0.60;;;21.60;71.40;;;;;;5133463;27;20049;-56
2021/08/27 12:05:37;;;;;;;1.63;0.70;;;21.60;71.40;;;;;;5134453;27;20039;-52
2021/08/27 12:08:13;;;;;;;0.57;0.50;;;21.60;71.40;;;;;;5133573;27;20100;-56
2021/08/27 12:10:42;;;;;;;0.80;0.50;;;21.60;71.40;;;;;;5133568;27;20050;-55
2021/08/27 12:13:11;;;;;;;1.88;0.70;;;21.60;71.40;;;;;;5133189;27;20055;-56
2021/08/27 12:15:40;;;;;;;1.05;0.60;;;21.60;71.40;;;;;;5133341;27;20399;-55
2021/08/27 12:18:13;;;;;;;0.93;0.57;;;21.60;71.40;;;;;;5134336;27;20383;-56
2021/08/27 12:20:47;;;;;;;1.98;0.75;;;21.60;71.40;;;;;;5132717;27;20045;-56
2021/08/27 12:23:19;;;;;;;1.00;0.90;;;21.60;71.40;;;;;;5133474;27;20075;-53
2021/08/27 12:25:47;;;;;;;0.57;0.50;;;21.60;71.40;;;;;;5133080;27;20430;-53
2021/08/27 12:28:16;;;;;;;0.88;0.52;;;21.60;71.40;;;;;;5135033;27;20491;-53
2021/08/27 12:30:58;;;;;;;0.98;0.63;;;21.60;71.40;;;;;;5149859;27;20039;-52
2021/08/27 12:33:26;;;;;;;0.57;0.50;;;21.60;71.40;;;;;;5133487;27;20068;-54
2021/08/27 12:35:54;;;;;;;0.88;0.50;;;21.60;71.40;;;;;;5148893;27;20043;-47
2021/08/27 12:38:21;;;;;;;1.27;0.50;;;21.60;71.40;;;;;;5140857;27;20044;-51
2021/08/27 12:40:46;;;;;;;1.90;0.98;;;21.60;71.40;;;;;;5110241;28;20092;-50
2021/08/27 12:43:15;;;;;;;0.98;0.70;;;21.60;71.40;;;;;;5150441;27;20526;-55
2021/08/27 12:45:54;;;;;;;1.90;0.98;;;21.60;71.40;;;;;;5152368;27;20030;-53
2021/08/27 12:48:25;;;;;;;0.90;0.50;;;21.60;71.30;;;;;;5149640;27;20058;-55
2021/08/27 12:51:05;;;;;;;1.10;0.63;;;21.60;71.40;;;;;;5152418;27;20042;-53
2021/08/27 12:53:38;;;;;;;1.90;0.60;;;21.60;71.40;;;;;;5151695;27;20030;-57
2021/08/27 12:56:10;;;;;;;1.42;0.80;;;21.60;71.40;;;;;;5152531;27;20053;-54
2021/08/27 12:58:37;;;;;;;0.90;0.57;;;21.60;71.40;;;;;;5149497;27;20399;-53